sensor_id;sensor_type;location;lat;lon;timestamp;temperature;humidity
52381;DHT22;38310;52.796;6.942;2022-07-18T00:00:10;15.60;99.90
52381;DHT22;38310;52.796;6.942;2022-07-18T00:02:36;15.60;99.90
52381;DHT22;38310;52.796;6.942;2022-07-18T00:05:03;15.60;99.90
52381;DHT22;38310;52.796;6.942;2022-07-18T00:07:29;15.60;99.90
52381;DHT22;38310;52.796;6.942;2022-07-18T00:09:54;15.60;99.90
52381;DHT22;38310;52.796;6.942;2022-07-18T00:12:20;15.60;99.90
52381;DHT22;38310;52.796;6.942;2022-07-18T00:14:46;15.60;99.90
52381;DHT22;38310;52.796;6.942;2022-07-18T00:17:12;15.60;99.90
52381;DHT22;38310;52.796;6.942;2022-07-18T00:19:38;15.50;99.90
52381;DHT22;38310;52.796;6.942;2022-07-18T00:22:04;15.50;99.90
52381;DHT22;38310;52.796;6.942;2022-07-18T00:24:33;15.50;99.90
52381;DHT22;38310;52.796;6.942;2022-07-18T00:26:59;15.40;99.90
52381;DHT22;38310;52.796;6.942;2022-07-18T00:29:25;15.40;99.90
52381;DHT22;38310;52.796;6.942;2022-07-18T00:31:51;15.30;99.90
52381;DHT22;38310;52.796;6.942;2022-07-18T00:34:17;15.30;99.90
52381;DHT22;38310;52.796;6.942;2022-07-18T00:36:43;15.30;99.90
52381;DHT22;38310;52.796;6.942;2022-07-18T00:39:09;15.30;99.90
52381;DHT22;38310;52.796;6.942;2022-07-18T00:41:35;15.30;99.90
52381;DHT22;38310;52.796;6.942;2022-07-18T00:44:00;15.30;99.90
52381;DHT22;38310;52.796;6.942;2022-07-18T00:46:27;15.30;99.90
52381;DHT22;38310;52.796;6.942;2022-07-18T00:48:53;15.30;99.90
52381;DHT22;38310;52.796;6.942;2022-07-18T00:51:20;15.20;99.90
52381;DHT22;38310;52.796;6.942;2022-07-18T00:53:47;15.20;99.90
52381;DHT22;38310;52.796;6.942;2022-07-18T00:56:18;15.20;99.90
52381;DHT22;38310;52.796;6.942;2022-07-18T00:58:45;15.20;99.90
52381;DHT22;38310;52.796;6.942;2022-07-18T01:06:28;15.20;99.90
52381;DHT22;38310;52.796;6.942;2022-07-18T01:08:54;15.20;99.90
52381;DHT22;38310;52.796;6.942;2022-07-18T01:14:30;15.20;99.90
52381;DHT22;38310;52.796;6.942;2022-07-18T01:16:56;15.20;99.90
52381;DHT22;38310;52.796;6.942;2022-07-18T01:19:22;15.20;99.90
52381;DHT22;38310;52.796;6.942;2022-07-18T01:21:48;15.10;99.90
52381;DHT22;38310;52.796;6.942;2022-07-18T01:24:13;15.40;99.90
52381;DHT22;38310;52.796;6.942;2022-07-18T01:26:39;15.10;99.90
52381;DHT22;38310;52.796;6.942;2022-07-18T01:29:05;15.10;99.90
52381;DHT22;38310;52.796;6.942;2022-07-18T01:31:31;15.10;99.90
52381;DHT22;38310;52.796;6.942;2022-07-18T01:33:59;15.00;99.90
52381;DHT22;38310;52.796;6.942;2022-07-18T01:36:25;15.10;99.90
52381;DHT22;38310;52.796;6.942;2022-07-18T01:38:51;15.00;99.90
52381;DHT22;38310;52.796;6.942;2022-07-18T01:41:16;15.00;99.90
52381;DHT22;38310;52.796;6.942;2022-07-18T01:43:43;14.90;99.90
52381;DHT22;38310;52.796;6.942;2022-07-18T01:46:10;14.90;99.90
52381;DHT22;38310;52.796;6.942;2022-07-18T01:48:40;14.90;99.90
52381;DHT22;38310;52.796;6.942;2022-07-18T01:51:07;14.80;99.90
52381;DHT22;38310;52.796;6.942;2022-07-18T01:53:40;14.80;99.90
52381;DHT22;38310;52.796;6.942;2022-07-18T01:56:07;14.70;99.90
52381;DHT22;38310;52.796;6.942;2022-07-18T01:58:33;14.70;99.90
52381;DHT22;38310;52.796;6.942;2022-07-18T02:00:59;14.70;99.90
52381;DHT22;38310;52.796;6.942;2022-07-18T02:03:25;14.60;99.90
52381;DHT22;38310;52.796;6.942;2022-07-18T02:05:51;14.60;99.90
52381;DHT22;38310;52.796;6.942;2022-07-18T02:08:16;14.60;99.90
52381;DHT22;38310;52.796;6.942;2022-07-18T02:10:42;14.50;99.90
52381;DHT22;38310;52.796;6.942;2022-07-18T02:13:08;14.50;99.90
52381;DHT22;38310;52.796;6.942;2022-07-18T02:15:33;14.40;99.90
52381;DHT22;38310;52.796;6.942;2022-07-18T02:17:59;14.50;99.90
52381;DHT22;38310;52.796;6.942;2022-07-18T02:20:25;14.40;99.90
52381;DHT22;38310;52.796;6.942;2022-07-18T02:22:50;14.40;99.90
52381;DHT22;38310;52.796;6.942;2022-07-18T02:25:16;14.30;99.90
52381;DHT22;38310;52.796;6.942;2022-07-18T02:27:42;14.30;99.90
52381;DHT22;38310;52.796;6.942;2022-07-18T02:30:09;14.30;99.90
52381;DHT22;38310;52.796;6.942;2022-07-18T02:32:35;14.30;99.90
52381;DHT22;38310;52.796;6.942;2022-07-18T02:35:04;14.20;99.90
52381;DHT22;38310;52.796;6.942;2022-07-18T02:37:30;14.20;99.90
52381;DHT22;38310;52.796;6.942;2022-07-18T02:39:56;14.20;99.90
52381;DHT22;38310;52.796;6.942;2022-07-18T02:42:22;14.20;99.90
52381;DHT22;38310;52.796;6.942;2022-07-18T02:44:47;14.20;99.90
52381;DHT22;38310;52.796;6.942;2022-07-18T02:47:13;14.10;99.90
52381;DHT22;38310;52.796;6.942;2022-07-18T02:49:39;14.10;99.90
52381;DHT22;38310;52.796;6.942;2022-07-18T02:52:06;14.10;99.90
52381;DHT22;38310;52.796;6.942;2022-07-18T02:54:35;14.10;99.90
52381;DHT22;38310;52.796;6.942;2022-07-18T02:57:01;14.10;99.90
52381;DHT22;38310;52.796;6.942;2022-07-18T02:59:27;14.10;99.90
52381;DHT22;38310;52.796;6.942;2022-07-18T03:01:54;14.00;99.90
52381;DHT22;38310;52.796;6.942;2022-07-18T03:04:20;14.00;99.90
52381;DHT22;38310;52.796;6.942;2022-07-18T03:06:47;14.10;99.90
52381;DHT22;38310;52.796;6.942;2022-07-18T03:09:13;14.00;99.90
52381;DHT22;38310;52.796;6.942;2022-07-18T03:11:39;14.00;99.90
52381;DHT22;38310;52.796;6.942;2022-07-18T03:14:05;14.00;99.90
52381;DHT22;38310;52.796;6.942;2022-07-18T03:16:31;14.00;99.90
52381;DHT22;38310;52.796;6.942;2022-07-18T03:18:56;13.90;99.90
52381;DHT22;38310;52.796;6.942;2022-07-18T03:21:22;13.90;99.90
52381;DHT22;38310;52.796;6.942;2022-07-18T03:23:48;13.90;99.90
52381;DHT22;38310;52.796;6.942;2022-07-18T03:26:14;13.80;99.90
52381;DHT22;38310;52.796;6.942;2022-07-18T03:28:39;13.80;99.90
52381;DHT22;38310;52.796;6.942;2022-07-18T03:31:05;13.80;99.90
52381;DHT22;38310;52.796;6.942;2022-07-18T03:33:31;13.70;99.90
52381;DHT22;38310;52.796;6.942;2022-07-18T03:35:57;13.70;99.90
52381;DHT22;38310;52.796;6.942;2022-07-18T03:38:23;13.80;99.90
52381;DHT22;38310;52.796;6.942;2022-07-18T03:40:49;13.70;99.90
52381;DHT22;38310;52.796;6.942;2022-07-18T03:43:14;13.70;99.90
52381;DHT22;38310;52.796;6.942;2022-07-18T03:45:40;13.70;99.90
52381;DHT22;38310;52.796;6.942;2022-07-18T03:48:06;13.70;99.90
52381;DHT22;38310;52.796;6.942;2022-07-18T03:50:32;13.70;99.90
52381;DHT22;38310;52.796;6.942;2022-07-18T03:52:59;13.70;99.90
52381;DHT22;38310;52.796;6.942;2022-07-18T03:55:25;13.80;99.90
52381;DHT22;38310;52.796;6.942;2022-07-18T03:57:50;13.70;99.90
52381;DHT22;38310;52.796;6.942;2022-07-18T04:00:16;14.10;99.90
52381;DHT22;38310;52.796;6.942;2022-07-18T04:02:44;13.80;99.90
52381;DHT22;38310;52.796;6.942;2022-07-18T04:05:10;13.80;99.90
52381;DHT22;38310;52.796;6.942;2022-07-18T04:07:36;13.80;99.90
52381;DHT22;38310;52.796;6.942;2022-07-18T04:10:03;13.80;99.90
52381;DHT22;38310;52.796;6.942;2022-07-18T04:12:30;13.80;99.90
52381;DHT22;38310;52.796;6.942;2022-07-18T04:14:56;13.80;99.90
52381;DHT22;38310;52.796;6.942;2022-07-18T04:17:22;13.90;99.90
52381;DHT22;38310;52.796;6.942;2022-07-18T04:19:47;13.90;99.90
52381;DHT22;38310;52.796;6.942;2022-07-18T04:22:13;13.90;99.90
52381;DHT22;38310;52.796;6.942;2022-07-18T04:24:39;13.90;99.90
52381;DHT22;38310;52.796;6.942;2022-07-18T04:27:05;13.90;99.90
52381;DHT22;38310;52.796;6.942;2022-07-18T04:29:30;14.00;99.90
52381;DHT22;38310;52.796;6.942;2022-07-18T04:31:58;13.90;99.90
52381;DHT22;38310;52.796;6.942;2022-07-18T04:34:23;14.00;99.90
52381;DHT22;38310;52.796;6.942;2022-07-18T04:36:49;14.00;99.90
52381;DHT22;38310;52.796;6.942;2022-07-18T04:39:15;14.50;99.90
52381;DHT22;38310;52.796;6.942;2022-07-18T04:41:42;14.10;99.90
52381;DHT22;38310;52.796;6.942;2022-07-18T04:44:08;14.10;99.90
52381;DHT22;38310;52.796;6.942;2022-07-18T04:46:34;14.10;99.90
52381;DHT22;38310;52.796;6.942;2022-07-18T04:49:00;14.10;99.90
52381;DHT22;38310;52.796;6.942;2022-07-18T04:51:26;14.20;99.90
52381;DHT22;38310;52.796;6.942;2022-07-18T04:53:52;14.30;99.90
52381;DHT22;38310;52.796;6.942;2022-07-18T04:56:23;14.40;99.90
52381;DHT22;38310;52.796;6.942;2022-07-18T04:58:48;14.50;99.90
52381;DHT22;38310;52.796;6.942;2022-07-18T05:01:14;14.60;99.90
52381;DHT22;38310;52.796;6.942;2022-07-18T05:03:40;14.60;99.90
52381;DHT22;38310;52.796;6.942;2022-07-18T05:06:06;14.80;99.90
52381;DHT22;38310;52.796;6.942;2022-07-18T05:08:32;14.80;99.90
52381;DHT22;38310;52.796;6.942;2022-07-18T05:10:57;14.90;99.90
52381;DHT22;38310;52.796;6.942;2022-07-18T05:13:23;15.00;99.90
52381;DHT22;38310;52.796;6.942;2022-07-18T05:15:49;15.20;99.90
52381;DHT22;38310;52.796;6.942;2022-07-18T05:18:15;15.20;99.90
52381;DHT22;38310;52.796;6.942;2022-07-18T05:20:40;15.30;99.90
52381;DHT22;38310;52.796;6.942;2022-07-18T05:23:06;15.40;99.90
52381;DHT22;38310;52.796;6.942;2022-07-18T05:25:32;15.50;99.90
52381;DHT22;38310;52.796;6.942;2022-07-18T05:27:57;15.60;99.90
52381;DHT22;38310;52.796;6.942;2022-07-18T05:30:23;15.70;99.90
52381;DHT22;38310;52.796;6.942;2022-07-18T05:32:50;15.80;99.90
52381;DHT22;38310;52.796;6.942;2022-07-18T05:35:18;15.90;99.90
52381;DHT22;38310;52.796;6.942;2022-07-18T05:37:44;16.00;99.90
52381;DHT22;38310;52.796;6.942;2022-07-18T05:40:12;16.10;99.90
52381;DHT22;38310;52.796;6.942;2022-07-18T05:42:38;16.10;99.90
52381;DHT22;38310;52.796;6.942;2022-07-18T05:45:04;16.30;99.90
52381;DHT22;38310;52.796;6.942;2022-07-18T05:47:31;16.40;99.90
52381;DHT22;38310;52.796;6.942;2022-07-18T05:49:57;16.40;99.90
52381;DHT22;38310;52.796;6.942;2022-07-18T05:52:22;16.50;99.90
52381;DHT22;38310;52.796;6.942;2022-07-18T05:54:48;16.50;99.90
52381;DHT22;38310;52.796;6.942;2022-07-18T05:57:14;16.60;99.90
52381;DHT22;38310;52.796;6.942;2022-07-18T05:59:39;16.60;99.90
52381;DHT22;38310;52.796;6.942;2022-07-18T06:02:05;16.70;99.90
52381;DHT22;38310;52.796;6.942;2022-07-18T06:04:31;16.70;99.90
52381;DHT22;38310;52.796;6.942;2022-07-18T06:06:57;16.80;99.90
52381;DHT22;38310;52.796;6.942;2022-07-18T06:09:22;17.00;99.90
52381;DHT22;38310;52.796;6.942;2022-07-18T06:11:48;17.10;99.90
52381;DHT22;38310;52.796;6.942;2022-07-18T06:14:14;17.30;99.90
52381;DHT22;38310;52.796;6.942;2022-07-18T06:16:40;17.50;99.90
52381;DHT22;38310;52.796;6.942;2022-07-18T06:19:06;17.60;99.90
52381;DHT22;38310;52.796;6.942;2022-07-18T06:21:32;17.70;99.90
52381;DHT22;38310;52.796;6.942;2022-07-18T06:23:58;17.70;99.90
52381;DHT22;38310;52.796;6.942;2022-07-18T06:26:23;17.80;99.90
52381;DHT22;38310;52.796;6.942;2022-07-18T06:28:49;17.90;99.90
52381;DHT22;38310;52.796;6.942;2022-07-18T06:31:15;18.10;99.90
52381;DHT22;38310;52.796;6.942;2022-07-18T06:33:44;17.80;99.90
52381;DHT22;38310;52.796;6.942;2022-07-18T06:36:10;18.30;99.90
52381;DHT22;38310;52.796;6.942;2022-07-18T06:38:39;18.40;99.90
52381;DHT22;38310;52.796;6.942;2022-07-18T06:41:06;18.50;99.90
52381;DHT22;38310;52.796;6.942;2022-07-18T06:43:34;18.70;99.90
52381;DHT22;38310;52.796;6.942;2022-07-18T06:45:59;18.80;99.90
52381;DHT22;38310;52.796;6.942;2022-07-18T06:48:25;18.90;99.90
52381;DHT22;38310;52.796;6.942;2022-07-18T06:50:51;19.00;99.90
52381;DHT22;38310;52.796;6.942;2022-07-18T06:53:17;19.10;99.90
52381;DHT22;38310;52.796;6.942;2022-07-18T06:55:42;19.20;99.90
52381;DHT22;38310;52.796;6.942;2022-07-18T06:58:08;19.40;99.90
52381;DHT22;38310;52.796;6.942;2022-07-18T07:00:35;19.50;99.90
52381;DHT22;38310;52.796;6.942;2022-07-18T07:03:01;19.60;99.90
52381;DHT22;38310;52.796;6.942;2022-07-18T07:05:26;19.60;99.90
52381;DHT22;38310;52.796;6.942;2022-07-18T07:07:52;19.70;99.90
52381;DHT22;38310;52.796;6.942;2022-07-18T07:10:18;19.80;99.90
52381;DHT22;38310;52.796;6.942;2022-07-18T07:12:49;19.90;99.90
52381;DHT22;38310;52.796;6.942;2022-07-18T07:15:17;20.00;99.90
52381;DHT22;38310;52.796;6.942;2022-07-18T07:17:44;20.20;99.90
52381;DHT22;38310;52.796;6.942;2022-07-18T07:20:11;20.30;99.90
52381;DHT22;38310;52.796;6.942;2022-07-18T07:22:44;20.50;99.90
52381;DHT22;38310;52.796;6.942;2022-07-18T07:25:10;20.70;99.90
52381;DHT22;38310;52.796;6.942;2022-07-18T07:27:36;20.80;99.90
52381;DHT22;38310;52.796;6.942;2022-07-18T07:30:02;20.90;99.90
52381;DHT22;38310;52.796;6.942;2022-07-18T07:32:28;21.00;99.90
52381;DHT22;38310;52.796;6.942;2022-07-18T07:34:54;21.20;99.90
52381;DHT22;38310;52.796;6.942;2022-07-18T07:37:20;21.40;99.90
52381;DHT22;38310;52.796;6.942;2022-07-18T07:39:45;21.60;99.90
52381;DHT22;38310;52.796;6.942;2022-07-18T07:42:12;21.80;99.90
52381;DHT22;38310;52.796;6.942;2022-07-18T07:44:38;21.90;99.90
52381;DHT22;38310;52.796;6.942;2022-07-18T07:47:04;22.20;99.90
52381;DHT22;38310;52.796;6.942;2022-07-18T07:49:30;22.30;99.90
52381;DHT22;38310;52.796;6.942;2022-07-18T07:51:59;22.60;99.90
52381;DHT22;38310;52.796;6.942;2022-07-18T07:54:25;22.80;99.90
52381;DHT22;38310;52.796;6.942;2022-07-18T07:56:51;23.00;99.90
52381;DHT22;38310;52.796;6.942;2022-07-18T07:59:16;23.20;99.90
52381;DHT22;38310;52.796;6.942;2022-07-18T08:01:43;23.50;99.90
52381;DHT22;38310;52.796;6.942;2022-07-18T08:04:08;23.50;99.90
52381;DHT22;38310;52.796;6.942;2022-07-18T08:06:34;23.60;99.90
52381;DHT22;38310;52.796;6.942;2022-07-18T08:09:00;23.70;99.90
52381;DHT22;38310;52.796;6.942;2022-07-18T08:11:25;23.80;99.90
52381;DHT22;38310;52.796;6.942;2022-07-18T08:13:51;24.10;99.90
52381;DHT22;38310;52.796;6.942;2022-07-18T08:16:17;24.20;99.90
52381;DHT22;38310;52.796;6.942;2022-07-18T08:18:43;24.30;99.80
52381;DHT22;38310;52.796;6.942;2022-07-18T08:21:08;24.60;99.90
52381;DHT22;38310;52.796;6.942;2022-07-18T08:23:34;24.60;99.90
52381;DHT22;38310;52.796;6.942;2022-07-18T08:26:01;24.70;99.90
52381;DHT22;38310;52.796;6.942;2022-07-18T08:28:27;24.70;99.40
52381;DHT22;38310;52.796;6.942;2022-07-18T08:30:53;24.70;98.50
52381;DHT22;38310;52.796;6.942;2022-07-18T08:33:19;24.90;98.20
52381;DHT22;38310;52.796;6.942;2022-07-18T08:35:44;25.00;97.80
52381;DHT22;38310;52.796;6.942;2022-07-18T08:38:10;24.80;95.40
52381;DHT22;38310;52.796;6.942;2022-07-18T08:40:37;25.10;96.40
52381;DHT22;38310;52.796;6.942;2022-07-18T08:43:03;25.20;95.10
52381;DHT22;38310;52.796;6.942;2022-07-18T08:45:29;25.30;95.90
52381;DHT22;38310;52.796;6.942;2022-07-18T08:47:55;25.40;95.50
52381;DHT22;38310;52.796;6.942;2022-07-18T08:50:21;25.70;95.90
52381;DHT22;38310;52.796;6.942;2022-07-18T08:52:48;26.00;95.80
52381;DHT22;38310;52.796;6.942;2022-07-18T08:55:15;26.20;95.80
52381;DHT22;38310;52.796;6.942;2022-07-18T08:57:41;26.20;95.00
52381;DHT22;38310;52.796;6.942;2022-07-18T09:00:08;26.20;94.30
52381;DHT22;38310;52.796;6.942;2022-07-18T09:02:34;26.30;93.70
52381;DHT22;38310;52.796;6.942;2022-07-18T09:05:03;26.50;93.60
52381;DHT22;38310;52.796;6.942;2022-07-18T09:07:31;26.70;92.60
52381;DHT22;38310;52.796;6.942;2022-07-18T09:09:59;26.80;94.20
52381;DHT22;38310;52.796;6.942;2022-07-18T09:12:27;27.00;93.80
52381;DHT22;38310;52.796;6.942;2022-07-18T09:14:54;27.10;93.40
52381;DHT22;38310;52.796;6.942;2022-07-18T09:17:22;27.20;92.50
52381;DHT22;38310;52.796;6.942;2022-07-18T09:20:12;27.50;91.80
52381;DHT22;38310;52.796;6.942;2022-07-18T09:22:43;27.60;91.10
52381;DHT22;38310;52.796;6.942;2022-07-18T09:25:14;27.50;90.60
52381;DHT22;38310;52.796;6.942;2022-07-18T09:27:44;27.30;87.90
52381;DHT22;38310;52.796;6.942;2022-07-18T09:30:27;27.20;87.80
52381;DHT22;38310;52.796;6.942;2022-07-18T09:33:04;27.40;85.40
52381;DHT22;38310;52.796;6.942;2022-07-18T09:38:16;27.40;84.90
52381;DHT22;38310;52.796;6.942;2022-07-18T09:40:44;27.80;86.30
52381;DHT22;38310;52.796;6.942;2022-07-18T09:43:12;28.00;86.10
52381;DHT22;38310;52.796;6.942;2022-07-18T09:45:41;28.00;83.40
52381;DHT22;38310;52.796;6.942;2022-07-18T09:48:09;27.80;83.50
52381;DHT22;38310;52.796;6.942;2022-07-18T09:50:37;28.10;83.90
52381;DHT22;38310;52.796;6.942;2022-07-18T09:53:17;28.20;82.20
52381;DHT22;38310;52.796;6.942;2022-07-18T09:58:11;28.30;83.70
52381;DHT22;38310;52.796;6.942;2022-07-18T10:00:38;28.40;81.30
52381;DHT22;38310;52.796;6.942;2022-07-18T10:03:06;28.70;81.40
52381;DHT22;38310;52.796;6.942;2022-07-18T10:05:34;28.60;78.80
52381;DHT22;38310;52.796;6.942;2022-07-18T10:08:01;28.90;78.80
52381;DHT22;38310;52.796;6.942;2022-07-18T10:10:28;29.00;79.20
52381;DHT22;38310;52.796;6.942;2022-07-18T10:12:56;29.00;78.30
52381;DHT22;38310;52.796;6.942;2022-07-18T10:15:32;28.90;73.70
52381;DHT22;38310;52.796;6.942;2022-07-18T10:17:59;29.00;76.10
52381;DHT22;38310;52.796;6.942;2022-07-18T10:20:31;28.60;74.00
52381;DHT22;38310;52.796;6.942;2022-07-18T10:23:02;28.90;75.40
52381;DHT22;38310;52.796;6.942;2022-07-18T10:25:31;29.10;75.00
52381;DHT22;38310;52.796;6.942;2022-07-18T10:30:32;29.10;71.00
52381;DHT22;38310;52.796;6.942;2022-07-18T10:32:58;29.30;74.80
52381;DHT22;38310;52.796;6.942;2022-07-18T10:38:25;29.40;72.10
52381;DHT22;38310;52.796;6.942;2022-07-18T10:41:04;29.50;73.80
52381;DHT22;38310;52.796;6.942;2022-07-18T10:43:31;29.90;75.10
52381;DHT22;38310;52.796;6.942;2022-07-18T10:46:01;30.20;74.40
52381;DHT22;38310;52.796;6.942;2022-07-18T10:54:03;30.10;71.60
52381;DHT22;38310;52.796;6.942;2022-07-18T10:59:21;30.00;69.20
52381;DHT22;38310;52.796;6.942;2022-07-18T11:01:55;30.20;68.80
52381;DHT22;38310;52.796;6.942;2022-07-18T11:04:29;30.50;70.70
52381;DHT22;38310;52.796;6.942;2022-07-18T11:07:05;30.50;70.50
52381;DHT22;38310;52.796;6.942;2022-07-18T11:09:36;30.50;68.20
52381;DHT22;38310;52.796;6.942;2022-07-18T11:12:20;30.80;68.50
52381;DHT22;38310;52.796;6.942;2022-07-18T11:15:09;30.80;66.40
52381;DHT22;38310;52.796;6.942;2022-07-18T11:20:35;31.30;69.30
52381;DHT22;38310;52.796;6.942;2022-07-18T11:23:03;31.60;66.50
52381;DHT22;38310;52.796;6.942;2022-07-18T11:25:30;31.70;67.60
52381;DHT22;38310;52.796;6.942;2022-07-18T11:27:56;31.70;66.40
52381;DHT22;38310;52.796;6.942;2022-07-18T11:30:23;31.30;63.50
52381;DHT22;38310;52.796;6.942;2022-07-18T11:32:49;31.60;66.10
52381;DHT22;38310;52.796;6.942;2022-07-18T11:35:21;31.70;65.40
52381;DHT22;38310;52.796;6.942;2022-07-18T11:37:48;31.90;64.80
52381;DHT22;38310;52.796;6.942;2022-07-18T11:40:14;31.60;62.70
52381;DHT22;38310;52.796;6.942;2022-07-18T11:42:41;31.60;64.10
52381;DHT22;38310;52.796;6.942;2022-07-18T11:45:09;31.60;62.60
52381;DHT22;38310;52.796;6.942;2022-07-18T11:47:49;32.00;64.10
52381;DHT22;38310;52.796;6.942;2022-07-18T11:50:16;31.80;62.50
52381;DHT22;38310;52.796;6.942;2022-07-18T11:52:44;32.40;62.40
52381;DHT22;38310;52.796;6.942;2022-07-18T11:55:11;32.10;62.10
52381;DHT22;38310;52.796;6.942;2022-07-18T11:57:37;32.10;61.90
52381;DHT22;38310;52.796;6.942;2022-07-18T12:00:19;32.70;63.30
52381;DHT22;38310;52.796;6.942;2022-07-18T12:03:15;32.40;60.40
52381;DHT22;38310;52.796;6.942;2022-07-18T12:05:49;32.10;57.90
52381;DHT22;38310;52.796;6.942;2022-07-18T12:11:10;32.50;62.90
52381;DHT22;38310;52.796;6.942;2022-07-18T12:13:56;32.80;62.30
52381;DHT22;38310;52.796;6.942;2022-07-18T12:19:12;32.90;60.70
52381;DHT22;38310;52.796;6.942;2022-07-18T12:22:17;32.30;60.50
52381;DHT22;38310;52.796;6.942;2022-07-18T12:27:15;32.10;63.50
52381;DHT22;38310;52.796;6.942;2022-07-18T12:32:22;31.80;60.70
52381;DHT22;38310;52.796;6.942;2022-07-18T12:35:04;31.40;61.20
52381;DHT22;38310;52.796;6.942;2022-07-18T12:37:30;31.70;60.90
52381;DHT22;38310;52.796;6.942;2022-07-18T12:39:58;31.40;61.50
52381;DHT22;38310;52.796;6.942;2022-07-18T12:42:38;31.90;62.10
52381;DHT22;38310;52.796;6.942;2022-07-18T12:45:04;32.10;61.50
52381;DHT22;38310;52.796;6.942;2022-07-18T12:47:30;32.10;62.10
52381;DHT22;38310;52.796;6.942;2022-07-18T12:49:56;32.20;61.20
52381;DHT22;38310;52.796;6.942;2022-07-18T12:52:22;32.10;62.70
52381;DHT22;38310;52.796;6.942;2022-07-18T12:54:48;32.50;62.90
52381;DHT22;38310;52.796;6.942;2022-07-18T12:57:15;32.70;62.20
52381;DHT22;38310;52.796;6.942;2022-07-18T12:59:41;32.50;60.70
52381;DHT22;38310;52.796;6.942;2022-07-18T13:02:06;32.60;62.20
52381;DHT22;38310;52.796;6.942;2022-07-18T13:04:32;32.80;63.40
52381;DHT22;38310;52.796;6.942;2022-07-18T13:06:58;32.30;62.40
52381;DHT22;38310;52.796;6.942;2022-07-18T13:09:24;32.60;61.80
52381;DHT22;38310;52.796;6.942;2022-07-18T13:11:49;32.30;60.30
52381;DHT22;38310;52.796;6.942;2022-07-18T13:14:16;32.60;61.70
52381;DHT22;38310;52.796;6.942;2022-07-18T13:16:46;32.90;62.30
52381;DHT22;38310;52.796;6.942;2022-07-18T13:19:16;32.90;63.00
52381;DHT22;38310;52.796;6.942;2022-07-18T13:21:43;32.70;60.00
52381;DHT22;38310;52.796;6.942;2022-07-18T13:24:09;32.80;61.60
52381;DHT22;38310;52.796;6.942;2022-07-18T13:26:35;33.00;60.90
52381;DHT22;38310;52.796;6.942;2022-07-18T13:29:00;32.40;60.20
52381;DHT22;38310;52.796;6.942;2022-07-18T13:31:27;33.00;62.50
52381;DHT22;38310;52.796;6.942;2022-07-18T13:33:53;33.20;62.80
52381;DHT22;38310;52.796;6.942;2022-07-18T13:36:19;33.50;62.20
52381;DHT22;38310;52.796;6.942;2022-07-18T13:38:45;33.60;61.50
52381;DHT22;38310;52.796;6.942;2022-07-18T13:41:11;32.90;61.30
52381;DHT22;38310;52.796;6.942;2022-07-18T13:43:38;33.30;60.70
52381;DHT22;38310;52.796;6.942;2022-07-18T13:46:10;34.00;61.50
52381;DHT22;38310;52.796;6.942;2022-07-18T13:48:37;33.40;58.90
52381;DHT22;38310;52.796;6.942;2022-07-18T13:51:03;33.00;60.50
52381;DHT22;38310;52.796;6.942;2022-07-18T13:53:29;32.80;60.80
52381;DHT22;38310;52.796;6.942;2022-07-18T13:55:55;32.90;60.70
52381;DHT22;38310;52.796;6.942;2022-07-18T13:58:21;32.40;59.90
52381;DHT22;38310;52.796;6.942;2022-07-18T14:00:47;32.60;61.30
52381;DHT22;38310;52.796;6.942;2022-07-18T14:03:13;32.50;61.70
52381;DHT22;38310;52.796;6.942;2022-07-18T14:05:39;32.40;62.50
52381;DHT22;38310;52.796;6.942;2022-07-18T14:08:06;32.30;62.50
52381;DHT22;38310;52.796;6.942;2022-07-18T14:10:32;32.50;64.30
52381;DHT22;38310;52.796;6.942;2022-07-18T14:13:00;32.90;63.40
52381;DHT22;38310;52.796;6.942;2022-07-18T14:15:26;33.20;62.20
52381;DHT22;38310;52.796;6.942;2022-07-18T14:17:52;33.60;61.00
52381;DHT22;38310;52.796;6.942;2022-07-18T14:20:18;34.00;61.70
52381;DHT22;38310;52.796;6.942;2022-07-18T14:22:44;34.10;61.80
52381;DHT22;38310;52.796;6.942;2022-07-18T14:25:13;34.50;62.10
52381;DHT22;38310;52.796;6.942;2022-07-18T14:27:39;34.60;60.80
52381;DHT22;38310;52.796;6.942;2022-07-18T14:30:07;34.90;61.90
52381;DHT22;38310;52.796;6.942;2022-07-18T14:32:33;35.00;60.90
52381;DHT22;38310;52.796;6.942;2022-07-18T14:34:59;35.00;60.30
52381;DHT22;38310;52.796;6.942;2022-07-18T14:37:25;34.10;57.90
52381;DHT22;38310;52.796;6.942;2022-07-18T14:39:50;34.30;58.60
52381;DHT22;38310;52.796;6.942;2022-07-18T14:42:18;33.80;59.10
52381;DHT22;38310;52.796;6.942;2022-07-18T14:44:44;33.60;58.60
52381;DHT22;38310;52.796;6.942;2022-07-18T14:47:09;33.60;59.50
52381;DHT22;38310;52.796;6.942;2022-07-18T14:49:35;33.20;58.60
52381;DHT22;38310;52.796;6.942;2022-07-18T14:52:01;33.30;58.70
52381;DHT22;38310;52.796;6.942;2022-07-18T14:54:27;33.50;59.60
52381;DHT22;38310;52.796;6.942;2022-07-18T14:56:54;33.10;59.00
52381;DHT22;38310;52.796;6.942;2022-07-18T14:59:20;33.30;59.10
52381;DHT22;38310;52.796;6.942;2022-07-18T15:01:47;33.30;58.70
52381;DHT22;38310;52.796;6.942;2022-07-18T15:04:12;33.50;58.70
52381;DHT22;38310;52.796;6.942;2022-07-18T15:06:38;33.70;58.20
52381;DHT22;38310;52.796;6.942;2022-07-18T15:09:06;33.70;58.70
52381;DHT22;38310;52.796;6.942;2022-07-18T15:11:32;33.40;57.80
52381;DHT22;38310;52.796;6.942;2022-07-18T15:13:58;33.50;58.90
52381;DHT22;38310;52.796;6.942;2022-07-18T15:16:24;33.70;58.50
52381;DHT22;38310;52.796;6.942;2022-07-18T15:18:50;33.50;57.90
52381;DHT22;38310;52.796;6.942;2022-07-18T15:21:16;33.40;57.40
52381;DHT22;38310;52.796;6.942;2022-07-18T15:23:41;33.40;57.40
52381;DHT22;38310;52.796;6.942;2022-07-18T15:26:07;33.30;57.50
52381;DHT22;38310;52.796;6.942;2022-07-18T15:28:33;33.30;57.80
52381;DHT22;38310;52.796;6.942;2022-07-18T15:30:58;33.50;58.90
52381;DHT22;38310;52.796;6.942;2022-07-18T15:33:24;33.30;58.80
52381;DHT22;38310;52.796;6.942;2022-07-18T15:35:50;33.30;59.00
52381;DHT22;38310;52.796;6.942;2022-07-18T15:38:16;33.00;57.90
52381;DHT22;38310;52.796;6.942;2022-07-18T15:40:42;32.90;58.50
52381;DHT22;38310;52.796;6.942;2022-07-18T15:43:09;32.90;57.70
52381;DHT22;38310;52.796;6.942;2022-07-18T15:45:35;33.00;57.90
52381;DHT22;38310;52.796;6.942;2022-07-18T15:48:01;33.00;58.30
52381;DHT22;38310;52.796;6.942;2022-07-18T15:50:27;32.70;57.50
52381;DHT22;38310;52.796;6.942;2022-07-18T15:52:53;32.70;58.10
52381;DHT22;38310;52.796;6.942;2022-07-18T15:55:19;32.70;58.00
52381;DHT22;38310;52.796;6.942;2022-07-18T15:57:45;32.70;57.70
52381;DHT22;38310;52.796;6.942;2022-07-18T16:00:11;32.90;59.10
52381;DHT22;38310;52.796;6.942;2022-07-18T16:02:37;32.70;58.50
52381;DHT22;38310;52.796;6.942;2022-07-18T16:05:04;32.60;58.10
52381;DHT22;38310;52.796;6.942;2022-07-18T16:07:30;32.50;58.50
52381;DHT22;38310;52.796;6.942;2022-07-18T16:09:56;32.60;59.30